Meteo Giornale » Osservazioni meteo Italia » Capo Bellavista

ore: 15:55 - Osservazioni Meteo Capo Bellavista
Lat. 39° 56' N Lon. 9° 43' E Alt. 138 metri s.l.m.

sereno Europe/Rome

25 °C

Sereno

Temp. 24 Ore

17 °C

27 °C

Sud-Est

7.4 Km/h

Dew point 13 °C

Umidità 47 %

Visibilità  10 Km

Il sole sorge alle ore 05:54

Il sole tramonta alle ore 20:42

Data e Ora Cielo e Fenomeni T °C DP °C Um. % Pres. hPa Vis. km Vento km/h
Oggi h: 15:55 sereno Sereno 25 13 47 1020 10 SE 7.4
Oggi h: 14:55 sereno Sereno 25 12 44 1020 10 E/SE 11.1
Oggi h: 13:55 sereno Sereno 26 12 41 1020 10 E 9.3
Oggi h: 12:55 sereno Sereno 27 14 44 1020 10 E 14.8
Oggi h: 11:55 sereno Sereno 26 15 50 1020 10 E/SE 11.1
Oggi h: 10:55 sereno Sereno 25 15 53 1020 10 E 16.7
Oggi h: 09:55 sereno Sereno 24 12 47 1020 10 E/SE 9.3
Oggi h: 08:55 sereno Sereno 22 13 56 1019 10 N 3.7
Oggi h: 07:55 sereno Sereno 20 14 68 1019 10 N 5.5
Oggi h: 06:55 sereno Sereno 18 13 72 1019 10 N 1.8
Oggi h: 05:55 sereno Sereno 17 13 77 1019 10 N 3.7
Oggi h: 04:55 sereno Sereno 17 15 88 1019 10 N 3.7
Oggi h: 03:55 sereno Sereno 17 13 77 1019 10 N 0
Oggi h: 02:55 sereno Sereno 18 16 88 1019 10 N 0
Ieri h: 21:55 sereno Sereno 19 17 88 1018 10 E/NE 9.3
Ieri h: 20:55 sereno Sereno 20 15 72 1018 10 E 9.3
Ieri h: 19:55 sereno Sereno 22 16 68 1018 10 E/SE 7.4
Ieri h: 18:55 sereno Sereno 23 16 64 1018 10 N 3.7
Ieri h: 17:55 sereno Sereno 24 16 60 1018 10 E/SE 11.1
Ieri h: 16:55 sereno Sereno 25 15 53 1018 10 E 11.1